Date,TemperatureHighF,TemperatureAvgF,TemperatureLowF,DewpointHighF,DewpointAvgF,DewpointLowF,HumidityHigh,HumidityAvg,HumidityLow,PressureMaxIn,PressureMinIn,WindSpeedMaxMPH,WindSpeedAvgMPH,GustSpeedMaxMPH,PrecipitationSumIn
2013-1-1,41.0,37.1,26.9,30.0,24.8,10.0,73,61,50,30.01,29.82,11,2,16,0.00
2013-1-2,34.3,27.9,22.4,18.0,13.5,10.0,66,55,45,30.16,29.99,10,2,15,0.00
2013-1-3,33.8,29.2,25.0,20.0,16.9,15.0,68,60,48,30.19,30.06,6,2,10,0.00
2013-1-4,38.9,34.6,30.1,24.0,22.3,20.0,71,61,51,30.08,29.94,11,3,18,0.00
2013-1-5,44.1,35.5,29.8,27.0,22.6,19.0,83,61,44,30.27,30.00,9,2,16,0.00
2013-1-6,46.2,39.0,33.2,34.0,30.6,26.0,92,73,57,30.23,29.96,9,2,9,0.00
2013-1-7,47.0,38.7,28.0,31.0,27.1,24.0,84,64,42,30.39,30.04,6,1,12,0.00
2013-1-8,49.2,39.4,27.1,35.0,31.2,23.0,90,73,54,30.43,30.34,10,2,14,0.00
2013-1-9,49.3,41.6,30.6,42.0,35.5,29.0,94,80,65,30.39,30.13,7,1,15,0.00
2013-1-10,49.0,42.7,35.7,35.0,26.6,23.0,69,54,38,30.53,30.21,11,2,17,0.00
2013-1-11,46.2,41.0,32.0,45.0,35.0,26.0,96,79,62,30.53,30.09,5,1,8,0.44
2013-1-12,49.1,44.8,42.3,48.0,43.9,42.0,97,96,93,30.17,30.05,4,1,8,0.52
2013-1-13,48.3,45.5,42.5,48.0,44.8,42.0,98,97,93,30.16,30.01,4,1,11,0.01
2013-1-14,57.3,50.1,38.0,55.0,45.0,34.0,99,84,61,30.28,29.93,5,1,12,0.03
2013-1-15,38.7,37.0,34.7,34.0,30.0,27.0,91,76,64,30.33,30.21,5,1,10,0.04
2013-1-16,37.7,35.2,33.1,36.0,33.7,31.0,96,94,88,30.21,29.79,8,1,10,0.03
2013-1-17,44.7,39.9,34.9,35.0,29.9,25.0,89,68,54,30.08,29.91,6,1,12,0.03
2013-1-18,34.5,28.9,25.0,23.0,12.6,5.0,68,52,35,30.48,30.00,11,2,13,0.00
2013-1-19,51.8,40.4,30.0,38.0,26.2,14.0,78,58,41,30.41,29.95,12,4,24,0.00
2013-1-20,55.3,44.1,30.9,32.0,24.5,11.0,72,49,21,30.03,29.68,16,4,21,0.00
2013-1-21,33.5,29.7,23.7,24.0,15.0,8.0,78,55,42,30.09,29.82,9,2,16,0.00
2013-1-22,28.2,21.0,13.7,18.0,1.8,-8.0,65,44,28,30.19,29.81,11,4,18,0.00
2013-1-23,20.4,15.3,11.6,2.0,-3.4,-8.0,64,44,34,30.24,30.16,9,2,16,0.00
2013-1-24,24.6,17.2,10.3,4.0,0.3,-3.0,72,50,30,30.39,30.13,13,3,20,0.00
2013-1-25,25.2,18.8,13.6,19.0,7.1,-1.0,89,62,40,30.41,30.06,5,1,12,0.00
2013-1-26,28.1,20.7,13.2,14.0,10.3,6.0,88,66,43,30.36,30.04,6,1,14,0.00
2013-1-27,35.1,25.0,15.8,15.0,11.7,8.0,75,59,35,30.51,30.36,7,1,11,0.00
2013-1-28,36.0,31.0,21.6,34.0,26.5,15.0,95,84,64,30.48,30.00,6,1,12,0.26
2013-1-29,50.5,41.6,35.9,43.0,38.7,34.0,96,89,70,30.16,29.99,5,1,9,0.10
2013-1-30,53.5,49.2,41.2,53.0,48.2,40.0,98,96,93,30.09,29.40,16,4,24,0.01
2013-1-31,56.5,44.8,30.1,56.0,30.6,9.0,98,61,35,29.77,29.04,24,7,31,0.54
2013-2-1,31.0,28.7,24.2,14.0,11.1,6.0,60,48,36,30.22,29.79,11,4,24,0.00
2013-2-2,31.4,25.5,19.6,22.0,10.6,7.0,89,55,38,30.30,30.06,9,2,14,0.00
2013-2-3,31.4,26.7,22.1,23.0,20.6,17.0,93,78,63,30.05,29.78,4,0,8,0.01
2013-2-4,32.0,27.8,23.5,22.0,12.3,9.0,77,53,40,29.98,29.79,10,3,16,0.01
2013-2-5,31.2,29.9,28.2,29.0,26.1,19.0,91,86,68,29.97,29.89,5,1,7,0.00
2013-2-6,39.7,33.7,28.8,30.0,22.4,7.0,95,66,39,30.35,29.91,7,2,13,0.01
2013-2-7,33.4,28.7,23.7,25.0,12.7,7.0,73,52,35,30.51,30.33,5,1,9,0.00
2013-2-8,35.3,32.9,27.5,34.0,30.0,25.0,95,89,73,30.33,29.58,12,4,24,0.18
2013-2-9,33.7,27.6,21.6,27.0,18.2,8.0,96,71,42,30.32,29.71,11,3,17,0.01
2013-2-10,38.0,25.5,14.3,27.0,13.2,7.0,86,62,35,30.48,30.32,3,0,7,0.01
2013-2-11,45.6,40.5,30.8,45.0,38.9,27.0,98,93,79,30.33,29.66,6,1,15,0.04
2013-2-12,46.2,41.1,34.5,41.0,28.6,25.0,98,63,48,29.95,29.71,11,2,15,0.04
2013-2-13,45.5,36.0,25.1,32.0,26.2,23.0,94,69,46,29.95,29.68,4,0,8,0.00
2013-2-14,47.7,38.3,30.4,36.0,30.5,24.0,95,76,42,30.00,29.69,7,1,9,0.01
2013-2-15,52.5,41.5,31.8,39.0,35.5,30.0,94,80,56,30.02,29.92,5,1,8,0.00
2013-2-16,43.0,35.7,29.6,34.0,27.4,18.0,91,73,52,29.95,29.71,7,2,17,0.01
2013-2-17,32.3,27.0,17.5,19.0,6.3,0.0,64,42,29,29.97,29.63,18,5,25,0.00
2013-2-18,37.6,26.6,17.4,17.0,6.7,2.0,55,44,28,30.23,29.97,20,4,21,0.00
2013-2-19,46.7,40.0,28.0,43.0,33.1,17.0,95,77,53,30.21,29.66,13,3,23,0.15
2013-2-20,38.7,31.7,25.6,26.0,14.6,9.0,66,50,40,29.96,29.70,18,4,20,0.15
2013-2-21,35.9,28.7,24.2,16.0,13.1,11.0,66,53,42,30.26,29.96,13,4,20,0.00
2013-2-22,40.5,32.8,25.7,32.0,23.5,16.0,81,69,54,30.39,30.25,5,2,12,0.00
2013-2-23,43.8,39.2,36.1,43.0,37.1,32.0,96,92,82,30.28,29.78,8,2,13,0.33
2013-2-24,46.9,39.4,33.5,39.0,33.2,24.0,96,79,57,29.94,29.73,8,2,15,0.35
2013-2-25,46.5,38.2,29.6,29.0,26.2,24.0,79,63,46,30.22,29.95,5,1,10,0.00
2013-2-26,44.9,38.0,29.1,35.0,31.8,27.0,96,79,61,30.29,29.90,9,3,17,0.12
2013-2-27,50.3,44.9,37.4,48.0,41.8,36.0,97,89,74,29.89,29.48,11,4,31,1.12
2013-2-28,50.4,44.3,40.2,40.0,36.2,31.0,92,74,58,29.62,29.53,6,1,7,0.00
2013-3-1,45.4,40.4,35.1,32.0,30.1,27.0,84,68,54,29.76,29.59,10,2,11,0.00
2013-3-2,42.0,36.5,31.3,30.0,25.9,24.0,90,66,53,29.76,29.68,6,2,12,0.00
2013-3-3,41.9,33.2,28.5,28.0,21.6,18.0,88,64,43,29.74,29.64,9,3,13,0.00
2013-3-4,42.7,33.9,27.2,22.0,20.2,16.0,70,58,43,29.88,29.74,15,4,18,0.00
2013-3-5,49.5,38.6,30.6,33.0,25.7,21.0,78,61,42,30.01,29.88,7,1,13,0.00
2013-3-6,42.2,39.2,34.3,37.0,33.0,31.0,90,78,70,29.98,29.82,15,5,24,0.02
2013-3-7,38.1,34.6,32.6,34.0,31.9,30.0,95,89,83,30.05,29.88,12,4,20,0.02
2013-3-8,39.5,34.3,30.8,34.0,31.1,28.0,96,88,64,30.15,29.98,6,2,15,0.50
2013-3-9,55.8,41.9,33.3,34.0,26.1,20.0,93,57,26,30.32,30.15,5,2,12,0.01
2013-3-10,47.3,38.1,28.0,37.0,33.0,27.0,97,83,65,30.38,30.31,6,1,8,0.02
2013-3-11,53.6,46.0,39.1,47.0,42.0,36.0,94,86,71,30.32,30.09,6,2,12,0.00
2013-3-12,52.4,49.6,44.5,51.0,47.5,38.0,98,92,79,30.10,29.68,17,4,20,0.59
2013-3-13,51.8,43.3,33.1,38.0,30.3,22.0,96,64,33,29.87,29.77,13,2,14,0.59
2013-3-14,41.9,35.5,30.5,27.0,13.6,6.0,63,42,25,29.94,29.83,16,4,22,0.00
2013-3-15,46.7,38.0,29.5,31.0,19.0,8.0,63,47,35,29.96,29.71,10,3,17,0.00
2013-3-16,41.7,35.6,31.8,31.0,27.0,21.0,91,72,53,29.90,29.77,7,1,9,0.02
2013-3-17,38.5,33.8,29.3,31.0,20.3,14.0,93,60,40,30.30,29.91,9,1,12,0.01
2013-3-18,37.4,31.8,25.7,33.0,20.6,11.0,95,65,48,30.40,30.03,11,3,17,0.07
2013-3-19,44.4,37.5,33.7,37.0,34.8,31.0,96,90,73,30.01,29.68,11,2,17,0.12
2013-3-20,47.8,38.6,31.9,31.0,20.8,17.0,77,51,32,29.88,29.78,13,3,20,0.12
2013-3-21,39.3,33.4,30.5,28.0,24.0,14.0,87,69,45,29.84,29.63,4,1,14,0.01
2013-3-22,41.4,35.2,28.8,23.0,17.9,14.0,65,50,39,29.87,29.72,11,3,14,0.01
2013-3-23,46.3,39.2,32.7,24.0,20.4,18.0,64,48,35,29.92,29.80,12,3,20,0.00
2013-3-24,47.1,38.8,29.2,28.0,23.1,19.0,69,55,38,29.94,29.71,7,1,12,0.00
2013-3-25,39.8,37.0,34.5,35.0,31.5,28.0,95,81,63,29.71,29.45,8,2,16,0.28
2013-3-26,53.7,42.3,33.2,35.0,30.1,27.0,94,65,36,29.85,29.57,6,1,12,0.28
2013-3-27,54.1,43.8,35.2,31.0,26.3,21.0,71,52,28,29.95,29.84,9,2,14,0.00
2013-3-28,51.0,43.9,36.7,34.0,30.8,29.0,75,61,49,30.09,29.94,9,2,12,0.00
2013-3-29,54.1,46.9,39.6,32.0,29.4,26.0,68,52,34,30.12,30.03,8,2,13,0.00
2013-3-30,59.3,46.4,36.4,37.0,30.3,20.0,89,57,22,30.15,30.06,7,1,15,0.00
2013-3-31,55.0,45.8,33.4,45.0,37.6,29.0,96,75,50,30.12,29.66,10,2,17,0.21
2013-4-1,61.9,48.6,38.1,47.0,39.4,14.0,96,74,35,29.89,29.60,8,3,19,0.22
2013-4-2,44.8,38.4,31.6,17.0,13.5,10.0,52,37,25,30.07,29.90,13,3,17,0.00
2013-4-3,47.0,38.5,32.8,15.0,12.5,9.0,46,35,23,30.28,30.07,13,4,19,0.00
2013-4-4,50.2,39.5,28.1,34.0,22.6,14.0,77,53,34,30.38,30.09,9,2,15,0.00
2013-4-5,63.6,50.1,40.6,37.0,26.5,16.0,82,46,20,30.09,29.69,9,3,17,0.00
2013-4-6,51.4,41.5,35.1,31.0,19.5,8.0,75,44,18,30.32,29.98,9,2,13,0.00
2013-4-7,54.1,47.1,36.6,44.0,38.4,30.0,89,72,57,30.31,30.02,13,3,20,0.00
2013-4-8,73.5,55.7,41.1,48.0,44.2,40.0,96,69,37,30.07,29.97,7,1,9,0.00
2013-4-9,83.7,65.4,48.4,54.0,45.2,34.0,92,56,18,30.01,29.90,15,2,17,0.00
2013-4-10,75.5,60.0,53.5,54.0,49.6,45.0,95,70,46,29.94,29.81,7,2,16,0.57
2013-4-11,60.5,53.9,47.2,56.0,49.6,39.0,97,85,67,30.04,29.76,8,2,15,0.62
2013-4-12,47.7,43.1,40.5,42.0,40.0,37.0,95,89,69,30.02,29.70,13,4,24,0.45
2013-4-13,57.6,46.7,38.6,43.0,38.7,35.0,95,76,43,29.97,29.72,4,1,10,0.53
2013-4-14,57.8,51.2,45.1,46.0,35.6,27.0,95,60,33,30.21,29.96,9,2,18,0.00
2013-4-15,56.3,48.7,41.2,40.0,32.9,28.0,81,56,40,30.38,30.22,8,1,11,0.00
2013-4-16,63.0,54.0,44.8,53.0,47.8,38.0,91,80,66,30.37,30.13,10,3,18,0.00
2013-4-17,70.3,58.8,49.8,54.0,45.3,36.0,91,65,29,30.30,30.10,5,1,11,0.01
2013-4-18,58.5,53.0,47.1,54.0,45.2,41.0,94,76,54,30.35,30.11,8,2,16,0.00
2013-4-19,67.5,58.7,52.9,60.0,56.6,52.0,98,93,76,30.10,29.67,12,4,26,0.00
2013-4-20,60.5,54.2,48.1,58.0,36.7,26.0,97,56,29,30.26,29.68,7,3,16,0.28
2013-4-21,55.3,44.8,36.7,33.0,24.7,19.0,70,47,26,30.62,30.28,8,2,14,0.00
2013-4-22,54.0,46.3,35.9,35.0,32.3,28.0,84,60,39,30.65,30.48,14,4,21,0.00
2013-4-23,50.7,45.0,41.2,42.0,37.9,33.0,85,76,68,30.48,30.09,7,3,16,0.00
2013-4-24,62.2,51.3,39.9,50.0,44.3,37.0,95,78,56,30.10,29.86,9,2,18,0.00
2013-4-25,66.4,54.8,47.2,51.0,35.3,24.0,93,53,21,30.26,29.87,10,2,19,0.00
2013-4-26,67.1,54.3,39.8,44.0,36.5,31.0,92,56,27,30.39,30.26,9,1,10,0.00
2013-4-27,69.2,55.5,44.3,41.0,32.2,20.0,74,45,17,30.41,30.29,7,1,12,0.00
2013-4-28,68.5,55.4,44.0,48.0,39.9,32.0,92,60,26,30.32,30.22,6,1,10,0.00
2013-4-29,56.3,54.1,52.4,50.0,47.4,45.0,85,78,69,30.24,30.19,5,1,8,0.02
2013-4-30,65.1,57.0,47.4,47.0,37.2,25.0,83,52,23,30.33,30.20,12,2,14,0.02
2013-5-1,66.0,54.3,41.3,46.0,40.2,32.0,85,61,31,30.48,30.32,7,2,14,0.00
2013-5-2,68.5,56.0,41.1,48.0,43.8,40.0,96,67,42,30.47,30.33,7,1,10,0.00
2013-5-3,63.3,54.7,46.9,47.0,42.3,37.0,89,64,44,30.45,30.36,7,2,13,0.00
2013-5-4,65.9,53.0,43.3,48.0,43.3,40.0,95,72,42,30.36,30.26,8,2,12,0.00
2013-5-5,62.3,51.3,42.1,46.0,41.7,39.0,88,71,48,30.30,30.23,6,2,15,0.00
2013-5-6,68.1,55.4,44.7,54.0,47.5,42.0,91,76,56,30.26,30.15,5,1,10,0.00
2013-5-7,73.3,59.7,46.5,61.0,54.0,45.0,95,82,63,30.17,30.09,6,1,12,0.00
2013-5-8,65.6,59.6,52.7,62.0,57.4,51.0,96,92,84,30.11,29.99,14,1,14,0.35
2013-5-9,67.7,59.3,53.5,60.0,56.2,52.0,97,90,72,30.02,29.89,6,1,9,0.52
2013-5-10,81.4,65.5,51.7,60.0,55.6,51.0,98,74,41,29.99,29.89,6,1,9,0.00
2013-5-11,68.8,61.3,59.0,62.0,59.1,56.0,97,93,79,29.90,29.69,8,2,15,0.79
2013-5-12,72.0,61.9,52.5,60.0,44.1,25.0,98,59,24,29.92,29.64,12,2,18,0.84
2013-5-13,60.7,52.1,43.6,34.0,29.0,23.0,67,42,27,30.08,29.92,10,2,15,0.00
2013-5-14,62.6,51.7,41.5,42.0,33.5,25.0,79,54,25,30.11,30.02,7,2,11,0.00
2013-5-15,65.9,56.7,44.0,56.0,49.1,41.0,93,77,50,30.07,29.69,8,1,18,0.01
2013-5-16,78.4,64.6,55.1,62.0,52.7,43.0,97,70,34,29.81,29.70,8,1,12,0.01
2013-5-17,74.2,64.0,54.6,52.0,43.5,40.0,89,49,30,30.19,29.81,6,1,12,0.00
2013-5-18,67.6,58.9,51.0,55.0,51.0,46.0,94,76,50,30.31,30.19,5,1,8,0.00
2013-5-19,57.9,56.8,55.2,57.0,54.8,49.0,97,93,73,30.32,30.17,6,1,12,0.36
2013-5-20,77.8,66.0,57.5,67.0,61.9,57.0,98,88,68,30.16,29.96,6,1,11,0.37
2013-5-21,83.8,70.9,60.4,71.0,65.1,60.0,98,83,63,29.97,29.85,6,1,11,0.00
2013-5-22,78.3,67.5,59.1,69.0,63.6,58.0,96,88,71,29.93,29.84,5,1,9,0.00
2013-5-23,76.4,67.0,62.9,68.0,64.0,62.0,96,90,74,29.91,29.77,12,3,22,0.07
2013-5-24,70.5,57.3,46.9,65.0,55.2,44.0,98,92,79,29.91,29.67,9,2,13,0.12
2013-5-25,53.9,48.6,44.3,47.0,43.0,39.0,95,82,62,29.97,29.87,10,3,28,0.11
2013-5-26,68.0,56.9,47.3,41.0,38.8,36.0,73,53,32,30.19,29.93,12,3,20,0.11
2013-5-27,72.7,58.8,41.6,50.0,42.2,34.0,92,60,26,30.24,30.12,10,1,15,0.00
2013-5-28,72.4,58.9,49.7,57.0,52.3,46.0,97,81,39,30.22,30.13,3,1,7,0.52
2013-5-29,81.2,67.3,56.0,69.0,61.7,55.0,97,83,62,30.13,30.00,5,1,10,0.53
2013-5-30,93.3,76.7,63.5,70.0,64.9,61.0,95,70,42,30.11,30.05,7,1,12,0.00
2013-5-31,92.8,77.4,64.4,73.0,66.1,61.0,94,70,45,30.11,29.99,5,1,11,0.00
2013-6-1,87.0,74.8,64.1,70.0,65.8,62.0,94,75,56,30.02,29.91,8,2,15,0.00
2013-6-2,82.2,71.4,63.5,69.0,64.5,62.0,94,80,61,29.93,29.79,6,2,17,0.00
2013-6-3,79.0,69.6,64.3,70.0,66.1,53.0,97,89,59,29.86,29.79,5,1,9,0.01
2013-6-4,77.2,66.6,56.3,54.0,47.7,42.0,80,53,29,30.09,29.86,8,2,10,0.01
2013-6-5,74.4,64.8,53.8,56.0,46.8,42.0,91,55,34,30.20,30.09,6,1,10,0.00
2013-6-6,72.8,65.3,57.7,60.0,56.3,48.6,95,75,46,30.14,30.01,8,2,12,0.02
2013-6-7,63.2,61.2,59.1,62.0,60.1,58.0,98,96,89,30.01,29.61,9,3,16,3.52
2013-6-8,79.5,68.0,56.2,65.0,61.5,55.0,98,81,61,30.04,29.54,9,2,13,0.90
2013-6-9,82.6,70.3,58.7,65.0,59.8,55.0,97,73,42,30.16,30.04,5,1,11,0.00
2013-6-10,71.4,65.6,63.1,66.0,63.4,62.0,98,92,78,30.16,29.84,7,2,17,1.19
2013-6-11,82.4,73.0,65.2,69.0,65.4,60.0,98,79,57,29.84,29.60,10,2,16,0.19
2013-6-12,77.7,70.8,61.6,60.0,55.4,53.0,82,59,44,29.84,29.69,8,2,16,0.00
2013-6-13,65.8,62.2,56.1,61.0,58.6,55.0,96,88,74,29.83,29.45,14,3,18,1.46
2013-6-14,75.1,60.1,53.1,58.0,54.3,52.0,96,83,50,29.86,29.49,9,2,15,0.31
2013-6-15,82.3,69.8,56.1,61.0,55.6,48.0,95,65,33,29.99,29.87,6,1,10,0.01
2013-6-16,82.3,71.4,57.8,67.0,61.0,54.0,96,72,41,29.98,29.76,8,2,14,0.00
2013-6-17,86.6,75.6,67.2,71.0,66.0,61.0,92,74,51,29.90,29.83,7,1,16,0.01
2013-6-18,84.9,71.5,63.7,70.0,66.0,63.0,96,84,56,29.89,29.81,4,1,9,0.25
2013-6-19,77.9,67.9,57.6,63.0,54.5,45.0,95,66,32,30.16,29.86,7,2,11,0.01
2013-6-20,79.4,68.4,55.0,60.0,55.6,53.0,95,66,45,30.27,30.16,8,2,12,0.00
2013-6-21,82.2,70.5,58.5,59.0,56.1,54.0,89,62,41,30.30,30.25,8,2,11,0.00
2013-6-22,84.5,71.1,59.1,65.0,59.6,52.0,94,69,41,30.26,30.14,6,1,9,0.00
2013-6-23,86.7,75.1,65.6,72.0,66.3,58.0,95,75,58,30.19,30.07,8,2,12,0.04
2013-6-24,94.6,79.3,70.9,79.0,70.6,65.0,97,76,51,30.07,29.94,5,1,12,0.44
2013-6-25,92.5,81.7,69.4,74.0,68.6,65.0,87,66,48,29.99,29.79,7,2,12,0.00
2013-6-26,88.4,80.0,73.1,71.0,68.5,66.0,90,69,48,29.83,29.76,9,2,12,0.00
2013-6-27,88.0,77.5,71.4,74.0,71.1,68.0,94,81,61,29.82,29.58,7,1,11,0.04
2013-6-28,87.3,77.1,71.0,73.0,70.7,67.0,94,81,61,29.58,29.48,8,2,11,0.00
2013-6-29,84.0,75.6,68.6,72.0,69.2,66.0,92,81,59,29.70,29.49,7,1,13,0.00
2013-6-30,85.4,74.2,68.1,76.0,71.0,67.0,96,90,70,29.92,29.70,4,1,10,0.01
2013-7-1,79.0,73.4,71.4,75.0,71.6,70.0,97,94,83,30.06,29.90,4,1,13,0.93
2013-7-2,83.2,74.8,71.3,75.0,71.8,70.0,96,90,74,30.19,30.05,8,2,13,0.48
2013-7-3,86.9,76.8,69.0,75.0,72.0,68.0,97,86,67,30.25,30.18,7,1,11,0.01
2013-7-4,88.7,79.3,72.1,77.0,73.3,71.0,97,83,66,30.25,30.16,6,2,13,0.00
2013-7-5,91.2,81.4,73.0,77.0,73.3,71.0,94,77,60,30.21,30.09,7,2,11,0.00
2013-7-6,96.1,84.1,75.9,76.0,73.3,71.0,89,72,44,30.13,30.01,8,2,13,0.00
2013-7-7,91.8,85.6,78.5,75.0,73.9,67.0,84,68,56,30.05,29.92,5,2,10,0.00
2013-7-8,90.7,82.0,73.6,73.0,69.1,65.0,82,66,51,30.03,29.96,8,2,12,0.00
2013-7-9,90.8,81.1,71.7,74.0,70.7,66.0,87,71,50,30.07,29.98,5,1,11,0.00
2013-7-10,88.3,79.2,72.5,77.0,72.9,70.0,91,81,66,30.01,29.80,8,2,13,0.10
2013-7-11,85.9,78.2,73.9,74.0,70.5,67.0,92,78,55,29.91,29.80,3,1,12,0.01
2013-7-12,77.5,73.3,68.4,70.0,66.8,64.0,95,80,70,30.09,29.91,8,2,16,0.35
2013-7-13,87.8,76.3,68.7,77.0,72.6,67.0,97,89,69,30.27,30.09,10,2,11,0.04
2013-7-14,91.4,81.4,72.5,76.0,73.6,71.0,97,79,56,30.32,30.23,8,1,11,0.00
2013-7-15,96.0,85.5,76.5,75.0,72.8,71.0,86,68,48,30.23,30.11,5,1,9,0.00
2013-7-16,94.1,85.0,76.1,73.0,68.4,64.0,86,60,39,30.18,30.11,8,1,12,0.00
2013-7-17,97.8,85.5,75.5,73.0,70.0,64.0,80,61,36,30.17,30.06,4,1,7,0.00
2013-7-18,100.0,88.0,76.9,77.0,73.6,68.0,87,65,37,30.06,29.95,7,1,8,0.00
2013-7-19,98.9,88.3,81.1,80.0,77.3,75.0,85,71,54,29.96,29.79,7,2,14,0.00
2013-7-20,95.3,86.2,80.6,76.0,72.3,69.0,81,64,45,29.82,29.71,15,3,17,0.00
2013-7-21,90.4,80.6,74.1,72.0,68.4,62.0,89,68,46,29.95,29.82,5,1,8,0.00
2013-7-22,88.4,77.9,73.7,75.0,72.9,70.0,95,85,62,29.95,29.80,4,1,9,0.10
2013-7-23,89.9,79.4,73.0,76.0,73.5,70.0,96,83,59,29.80,29.55,8,2,11,0.56
2013-7-24,84.8,77.1,70.1,73.0,67.0,57.0,96,73,55,29.91,29.60,5,1,9,0.01
2013-7-25,69.7,63.9,60.9,61.0,57.1,53.0,94,79,64,30.04,29.91,7,2,14,0.49
2013-7-26,83.5,70.8,61.8,67.0,62.6,60.0,94,77,50,30.04,29.97,5,1,13,0.00
2013-7-27,84.6,74.7,64.2,69.0,65.8,63.0,96,76,52,30.06,29.96,5,1,11,0.00
2013-7-28,80.9,73.0,66.2,71.0,68.3,65.0,97,86,63,29.99,29.93,6,1,10,0.07
2013-7-29,87.3,76.8,68.7,72.0,67.4,51.0,97,75,36,30.08,29.94,6,1,10,0.02
2013-7-30,82.4,73.2,59.7,62.0,57.4,55.0,91,59,40,30.15,30.08,5,1,11,0.00
2013-7-31,83.8,73.0,61.8,66.0,60.6,57.0,89,67,44,30.15,30.05,5,1,11,0.00
2013-8-1,76.5,70.1,66.8,69.0,66.6,65.0,96,88,74,30.04,29.83,4,1,9,0.45
2013-8-2,85.1,75.9,66.3,69.0,65.4,59.0,97,72,45,29.90,29.78,6,1,14,0.04
2013-8-3,79.7,73.2,68.5,67.0,64.6,60.0,87,75,64,29.91,29.84,9,1,13,0.01
2013-8-4,82.3,72.5,61.6,64.0,58.1,51.0,92,63,38,29.94,29.83,7,1,15,0.00
2013-8-5,81.2,68.9,56.8,59.0,51.3,46.0,85,57,31,30.04,29.95,9,1,10,0.00
2013-8-6,81.7,71.4,58.9,63.0,58.2,53.0,96,66,38,30.12,30.03,7,1,9,0.00
2013-8-7,81.7,73.0,66.9,68.0,64.1,60.0,87,74,54,30.14,30.07,6,2,13,0.00
2013-8-8,83.9,74.3,68.3,74.0,70.6,67.0,95,88,72,30.08,30.01,5,2,12,0.58
2013-8-9,84.3,77.3,73.0,76.0,73.7,71.0,95,89,76,30.02,29.80,8,2,13,0.01
2013-8-10,85.0,77.3,67.3,73.0,63.3,56.0,91,64,44,30.04,29.84,6,1,8,0.00
2013-8-11,84.6,72.4,59.7,65.0,57.5,51.0,91,62,36,30.12,30.03,5,1,7,0.00
2013-8-12,82.1,73.2,68.8,72.0,69.1,65.0,96,87,67,30.03,29.93,2,0,4,0.37
2013-8-13,79.6,71.0,67.2,72.0,68.7,66.0,97,92,71,29.93,29.70,4,0,8,0.88
2013-8-14,75.6,68.1,59.8,67.0,54.2,48.0,96,63,45,30.03,29.73,10,2,18,0.00
2013-8-15,80.2,67.5,53.8,59.0,53.2,47.0,93,63,32,30.14,30.04,6,1,10,0.00
2013-8-16,81.6,70.0,56.1,62.0,56.2,52.0,95,65,38,30.20,30.12,6,1,7,0.00
2013-8-17,83.0,70.3,57.5,61.0,58.5,56.0,95,69,42,30.27,30.20,5,1,8,0.00
2013-8-18,77.7,69.4,63.1,64.0,60.5,56.0,93,75,48,30.25,30.12,3,0,8,0.00
2013-8-19,80.6,71.7,62.0,64.0,61.0,58.0,87,70,52,30.12,30.02,5,1,12,0.00
2013-8-20,88.8,75.3,63.0,69.0,65.6,62.0,97,74,42,30.11,30.04,4,1,10,0.00
2013-8-21,90.4,77.7,66.6,71.0,66.7,60.0,96,73,37,30.17,30.05,6,1,9,0.00
2013-8-22,83.2,74.4,70.6,74.0,70.5,68.0,95,87,71,30.06,29.87,5,1,8,0.09
2013-8-23,81.7,73.8,67.7,70.0,61.2,54.0,95,67,42,30.09,29.86,8,2,10,0.01
2013-8-24,79.9,69.4,60.9,60.0,56.8,53.0,93,66,39,30.34,30.10,7,1,9,0.00
2013-8-25,83.7,70.9,56.5,64.0,56.5,51.0,97,65,34,30.38,30.23,7,2,12,0.00
2013-8-26,85.5,74.9,67.9,69.0,62.1,56.0,85,65,51,30.23,29.91,8,2,12,0.01
2013-8-27,86.0,77.1,71.6,71.0,68.4,66.0,90,76,54,29.91,29.80,5,2,15,0.01
2013-8-28,88.3,76.6,67.8,72.0,69.2,67.0,96,79,53,29.89,29.84,4,1,7,0.00
2013-8-29,80.7,73.4,69.2,70.0,66.7,64.0,95,81,60,30.02,29.87,7,1,11,0.00
2013-8-30,84.9,74.6,67.4,71.0,67.7,64.0,92,80,61,30.03,29.85,6,1,11,0.00
2013-8-31,85.6,76.6,71.6,74.0,71.1,69.0,90,83,67,29.87,29.80,5,2,10,0.00
2013-9-1,85.9,76.9,72.3,75.0,72.7,71.0,95,87,69,29.86,29.80,5,1,8,0.01
2013-9-2,81.1,75.9,71.8,75.0,73.3,70.0,97,92,82,29.80,29.71,4,0,6,0.01
2013-9-3,83.2,75.2,68.1,74.0,66.6,56.0,97,77,46,29.88,29.70,8,1,9,0.12
2013-9-4,83.5,73.0,63.4,60.0,57.5,51.0,82,60,35,29.98,29.87,8,1,14,0.00
2013-9-5,80.5,70.6,60.3,61.0,54.8,44.0,87,60,32,30.14,29.92,6,1,11,0.00
2013-9-6,72.5,62.3,53.3,50.0,46.3,43.0,85,58,35,30.24,30.12,6,1,11,0.00
2013-9-7,78.6,65.5,50.6,59.0,52.0,45.0,94,66,32,30.12,29.90,6,1,10,0.00
2013-9-8,82.7,72.2,63.3,65.0,57.1,45.0,87,61,35,30.06,29.81,7,2,12,0.00
2013-9-9,72.7,64.0,51.2,61.0,50.1,44.0,84,62,38,30.24,30.07,5,1,9,0.00
2013-9-10,81.8,73.6,67.9,72.0,67.9,61.0,90,82,72,30.16,30.06,8,2,14,0.00
2013-9-11,92.0,80.0,71.2,77.0,72.3,69.0,94,79,60,30.11,29.98,8,1,15,0.00
2013-9-12,84.9,75.2,68.8,74.0,70.7,67.0,95,86,68,29.99,29.69,11,2,13,0.16
2013-9-13,77.6,69.5,59.4,69.0,61.4,51.0,97,77,51,29.83,29.62,5,1,12,0.09
2013-9-14,69.0,60.0,51.4,51.0,48.5,46.0,84,67,49,30.11,29.83,7,1,10,0.00
2013-9-15,72.8,60.0,44.7,57.0,49.2,43.0,95,71,36,30.21,30.08,6,1,10,0.00
2013-9-16,72.1,63.9,58.4,59.0,55.1,48.0,92,74,50,30.22,30.03,7,1,11,0.01
2013-9-17,65.0,55.6,47.1,47.0,40.7,37.0,87,59,38,30.42,30.23,8,2,14,0.00
2013-9-18,72.2,57.8,43.7,53.0,46.5,42.0,97,70,36,30.34,30.19,6,1,10,0.00
2013-9-19,76.5,62.6,48.0,57.0,51.6,47.0,97,71,38,30.19,30.07,8,1,9,0.00
2013-9-20,77.8,64.7,51.1,60.0,56.6,50.0,97,78,47,30.08,30.01,5,1,9,0.00
2013-9-21,75.9,66.3,55.0,69.0,63.3,54.0,97,90,76,30.02,29.68,11,2,14,0.34
2013-9-22,69.7,63.2,55.1,68.0,52.2,-99.9,97,72,47,29.90,29.65,9,-9,13,1.26
2013-9-23,66.5,56.6,46.7,47.0,43.8,41.0,89,64,45,30.04,29.90,8,1,12,0.00
2013-9-24,73.6,58.3,42.9,50.0,44.6,40.0,92,63,35,30.04,29.86,5,1,9,0.00
2013-9-25,72.8,60.5,46.6,53.0,47.8,43.0,94,66,36,29.95,29.87,3,0,8,0.00
2013-9-26,68.7,59.8,51.6,60.0,55.1,50.0,97,85,65,30.09,29.93,4,0,10,0.00
2013-9-27,67.5,59.2,49.6,56.0,52.6,49.0,97,80,59,30.26,30.09,4,1,8,0.01
2013-9-28,72.9,62.7,52.4,56.0,53.9,51.0,95,75,50,30.31,30.23,6,1,10,0.00
2013-9-29,71.7,59.9,51.2,58.0,53.0,47.0,97,80,42,30.23,30.08,5,1,9,0.00
2013-9-30,72.2,60.2,49.5,58.0,53.5,49.0,98,81,47,30.08,29.97,3,0,7,0.01
2013-10-1,81.9,65.6,50.5,60.0,55.4,49.0,97,74,39,29.99,29.89,3,0,6,0.00
2013-10-2,84.8,70.0,55.4,63.0,59.5,55.0,97,73,44,30.00,29.89,5,1,10,0.00
2013-10-3,78.8,67.5,55.5,62.0,56.4,52.0,97,71,43,30.11,30.00,5,1,9,0.00
2013-10-4,84.0,70.6,59.9,67.0,63.5,58.0,96,80,56,30.06,29.97,8,1,10,0.00
2013-10-5,77.5,67.6,63.7,67.0,63.6,62.0,94,87,67,30.09,30.00,5,1,6,0.00
2013-10-6,68.4,65.9,64.0,67.0,64.7,63.0,97,95,93,30.10,30.04,7,2,10,0.00
2013-10-7,76.0,68.5,60.7,70.0,65.2,53.0,97,89,73,30.04,29.80,9,2,20,0.25
2013-10-8,66.1,59.4,52.9,52.0,46.1,43.0,82,63,44,30.31,29.98,6,1,11,0.00
2013-10-9,63.5,56.9,49.1,50.0,47.9,44.0,88,72,60,30.38,30.28,6,1,14,0.00
2013-10-10,64.2,58.6,54.9,58.0,53.4,49.0,89,83,78,30.28,30.07,12,2,14,0.00
2013-10-11,67.6,63.3,59.2,60.0,57.5,54.0,89,81,69,30.08,30.00,10,2,13,0.00
2013-10-12,72.8,64.0,58.2,56.0,49.5,35.0,78,61,26,30.27,30.06,9,3,23,0.00
2013-10-13,65.8,59.3,53.2,53.0,51.1,49.0,84,75,61,30.37,30.27,8,2,15,0.00
2013-10-14,66.9,55.3,46.0,52.0,48.7,44.0,94,79,58,30.36,30.25,3,0,8,0.00
2013-10-15,72.7,57.6,47.0,56.0,49.4,44.0,97,78,40,30.26,30.11,5,1,9,0.00
2013-10-16,67.5,60.4,53.0,60.0,56.3,50.0,93,87,76,30.11,29.92,3,0,6,0.00
2013-10-17,73.2,64.3,60.9,64.0,60.9,59.0,96,89,69,29.92,29.70,6,1,10,0.01
2013-10-18,70.5,62.5,52.3,63.0,48.9,43.0,94,63,41,29.97,29.67,6,2,13,0.01
2013-10-19,65.0,55.0,43.1,57.0,47.9,41.0,95,79,56,29.99,29.75,7,1,13,0.00
2013-10-20,64.0,54.9,44.4,56.0,42.1,35.0,90,65,36,30.06,29.74,5,1,14,0.00
2013-10-21,66.7,54.4,40.1,49.0,41.8,36.0,95,67,33,30.15,29.99,7,1,11,0.00
2013-10-22,68.8,57.6,47.0,53.0,47.4,39.0,96,70,48,29.99,29.75,11,1,14,0.00
2013-10-23,53.7,48.6,42.7,44.0,38.6,35.0,90,69,50,29.81,29.61,4,1,8,0.00
2013-10-24,55.1,46.7,39.5,37.0,31.6,26.0,81,58,36,30.00,29.74,6,1,12,0.00
2013-10-25,53.0,44.5,37.4,34.0,31.8,29.0,83,62,43,30.22,30.00,6,1,16,0.00
2013-10-26,56.6,46.3,33.3,37.0,33.1,30.0,95,64,37,30.22,29.91,12,2,15,0.00
2013-10-27,59.3,50.6,39.5,37.0,33.9,32.0,81,54,37,30.11,29.85,7,1,13,0.00
2013-10-28,62.4,47.7,34.5,38.0,34.8,32.0,93,65,36,30.30,30.11,6,1,12,0.00
2013-10-29,56.5,47.2,40.6,39.0,35.8,33.0,84,66,41,30.41,30.31,5,0,8,0.00
2013-10-30,60.1,51.1,41.4,53.0,45.3,36.0,94,81,63,30.35,30.18,5,0,9,0.00
2013-10-31,65.7,58.5,47.9,60.0,55.7,47.0,96,90,82,30.23,29.82,8,2,16,0.03
2013-11-1,68.1,62.7,56.9,62.0,58.6,55.0,96,87,66,29.81,29.56,13,3,20,0.10
2013-11-2,68.2,58.4,51.7,56.0,48.2,40.0,96,72,45,29.77,29.62,3,0,7,0.01
2013-11-3,54.0,45.9,37.0,43.0,34.6,22.0,86,66,53,30.43,29.76,8,2,13,0.00
2013-11-4,46.1,38.4,33.3,26.0,21.5,18.0,67,51,37,30.66,30.44,7,1,16,0.00
2013-11-5,55.3,45.9,36.2,42.0,36.4,25.0,87,70,55,30.65,30.49,7,1,9,0.00
2013-11-6,62.0,52.4,38.5,56.0,46.8,37.0,96,82,57,30.49,30.07,6,1,10,0.00
2013-11-7,63.3,55.1,41.1,60.0,50.8,31.0,96,86,60,30.07,29.75,8,2,16,0.18
2013-11-8,51.2,44.1,39.6,33.0,28.8,25.0,75,56,39,30.20,29.91,9,2,17,0.00
2013-11-9,49.3,43.7,32.1,36.0,28.9,25.0,85,57,40,30.28,30.01,4,1,11,0.00
2013-11-10,61.0,49.9,42.8,39.0,34.5,29.0,73,57,36,30.04,29.80,11,3,20,0.00
2013-11-11,53.4,48.5,41.8,35.0,29.8,26.0,55,49,41,30.20,29.96,10,3,14,0.00
2013-11-12,51.0,38.3,30.4,37.0,26.9,17.0,93,65,50,30.27,29.92,7,2,15,0.14
2013-11-13,39.7,32.9,27.6,20.0,16.3,11.0,66,52,32,30.35,30.27,10,2,11,0.00
2013-11-14,53.2,42.0,32.4,27.0,20.8,17.0,64,45,24,30.28,30.15,11,2,16,0.00
2013-11-15,56.0,44.7,35.5,42.0,34.4,27.0,93,69,38,30.25,30.16,5,0,8,0.00
2013-11-16,59.0,47.5,38.4,48.0,42.6,34.0,96,84,60,30.32,30.22,3,0,7,0.09
2013-11-17,60.6,55.1,42.7,59.0,53.8,42.0,98,95,91,30.27,29.81,5,1,9,0.03
2013-11-18,66.2,59.5,51.2,59.0,43.3,24.0,98,60,30,29.80,29.61,14,3,17,0.17
2013-11-19,50.5,43.6,33.8,31.0,26.1,23.0,65,51,44,30.33,29.76,14,3,18,0.00
2013-11-20,43.9,35.0,29.2,23.0,18.6,12.0,77,53,28,30.60,30.33,9,1,13,0.00
2013-11-21,52.0,41.8,27.4,44.0,32.9,22.0,85,72,53,30.61,30.39,7,1,10,0.00
2013-11-22,56.5,52.6,48.8,51.0,47.9,42.0,95,84,76,30.39,29.89,5,1,12,0.06
2013-11-23,54.0,42.7,30.9,50.0,26.0,9.0,87,54,32,30.02,29.88,14,3,23,0.00
2013-11-24,30.3,25.9,22.6,9.0,4.2,-2.0,48,40,25,30.36,29.99,13,5,25,0.00
2013-11-25,35.4,29.1,22.0,17.0,12.4,6.0,61,51,38,30.48,30.35,9,3,13,0.00
2013-11-26,52.4,38.5,33.5,51.0,28.2,18.0,97,69,48,30.34,29.79,9,2,17,0.49
2013-11-27,61.0,48.2,34.8,60.0,45.7,24.0,97,91,63,29.77,29.31,14,4,23,1.65
2013-11-28,35.5,31.3,26.2,24.0,15.7,10.0,67,54,36,30.47,29.72,11,3,21,0.00
2013-11-29,39.7,32.6,28.7,21.0,19.3,17.0,69,59,45,30.73,30.47,5,1,10,0.00
2013-11-30,37.7,31.2,22.8,30.0,18.9,-99.9,78,64,47,30.76,30.36,5,-20,9,0.00
2013-12-1,50.8,42.9,37.1,38.0,34.8,31.0,86,74,57,30.36,30.00,3,0,5,0.00
2013-12-2,52.1,41.8,36.1,41.0,37.4,34.0,94,85,59,30.00,29.88,2,0,5,0.00
2013-12-3,54.1,42.0,34.6,38.0,36.0,33.0,96,81,52,30.00,29.86,3,0,6,0.00
2013-12-4,52.0,43.6,34.2,46.0,38.7,33.0,94,83,61,30.14,30.00,2,0,5,0.00
2013-12-5,56.7,53.3,48.4,55.0,52.0,46.0,97,95,91,30.12,29.95,4,0,8,0.03
2013-12-6,55.2,46.6,35.7,55.0,45.5,34.0,98,96,92,30.13,29.87,6,1,13,0.70
2013-12-7,41.3,36.0,31.0,36.0,29.2,19.0,96,78,57,30.50,30.08,9,1,14,0.02
2013-12-8,32.8,30.1,26.7,30.0,22.0,17.0,94,73,57,30.59,30.37,4,1,9,0.00
2013-12-9,40.7,36.8,31.3,40.0,35.6,30.0,97,95,92,30.36,29.94,8,2,12,0.04
2013-12-10,36.0,33.2,29.4,34.0,29.7,18.0,95,87,62,30.12,29.87,4,1,12,0.02
2013-12-11,33.5,29.8,25.8,19.0,17.0,15.0,66,59,51,30.32,30.13,10,3,15,0.00
2013-12-12,28.8,25.2,22.6,17.0,9.3,6.0,66,51,40,30.35,30.16,8,2,15,0.00
2013-12-13,35.9,28.8,22.8,21.0,14.1,7.0,72,55,44,30.33,30.13,9,2,17,0.00
2013-12-14,41.2,27.4,23.3,40.0,23.3,18.0,97,85,71,30.50,29.80,13,3,15,0.00
2013-12-15,44.5,36.9,31.0,44.0,31.9,21.0,97,83,63,29.84,29.45,13,3,23,0.64
2013-12-16,33.1,28.2,20.1,23.0,13.8,9.0,75,55,41,30.24,29.83,10,2,14,0.00
2013-12-17,33.1,26.6,20.7,32.0,21.7,12.0,94,83,55,30.23,29.91,5,1,10,0.00
2013-12-18,37.5,29.8,23.2,25.0,22.1,20.0,89,74,58,30.16,29.91,6,1,14,0.00
2013-12-19,44.2,37.2,27.0,31.0,26.9,21.0,83,67,54,30.19,30.03,8,1,15,0.06
2013-12-20,51.6,43.4,34.0,44.0,35.3,30.0,93,74,51,30.11,29.97,6,1,13,0.00
2013-12-21,58.2,49.7,42.0,50.0,46.4,41.0,97,89,72,30.01,29.91,8,1,10,0.00
2013-12-22,62.5,56.8,50.8,58.0,54.1,49.0,96,91,82,29.97,29.83,10,2,18,0.00
2013-12-23,57.9,51.1,41.2,57.0,47.7,-99.9,98,93,82,30.13,29.88,9,-20,13,0.17
2013-12-24,41.1,35.7,26.5,36.0,25.3,9.0,82,67,46,30.32,30.08,12,2,19,0.00
2013-12-25,29.2,24.1,18.6,21.0,9.1,-99.9,71,55,47,30.52,30.32,9,-9,14,0.00
2013-12-26,37.6,32.1,25.9,27.0,24.3,20.0,83,73,54,30.43,30.16,6,1,11,0.00
2013-12-27,40.2,33.7,25.5,25.0,22.2,19.0,87,64,46,30.36,30.26,8,1,12,0.00
2013-12-28,54.3,42.2,27.2,31.0,28.3,23.0,89,61,40,30.29,30.07,11,2,17,0.00
2013-12-29,48.6,43.1,40.7,48.0,37.7,29.0,96,82,58,30.07,29.36,10,2,16,1.23
2013-12-30,45.4,35.7,23.0,39.0,27.7,12.0,95,74,53,30.19,29.69,8,2,14,0.00
2013-12-31,32.6,26.2,20.2,23.0,14.5,9.0,72,62,48,30.27,30.07,8,2,14,0.00
2014-1-1,33.1,28.6,22.2,21.0,15.2,8.0,67,58,47,30.41,30.26,11,1,11,0.00
2014-1-2,31.8,26.5,17.7,26.0,22.6,15.0,92,85,66,30.25,29.65,10,4,16,0.00